• Join FlightAware (Why Join?)
  • Login
  • US Flag 
12:20AM EDT


 

Airport Tracker/Info


-or-


 

Live Flight TrackerFlight Track Log ✈ UAL464 ✈ 07-May-2013 ✈ KDEN - KEWR

Flight Track Log - Related Links

Times and Time Zones

All times are in EDT time to prevent confusion due to time zone crossing. See the UAL464 flight status page for this flight to view local times or setup timezone preferences in your user account.

Time Position Orientation Groundspeed Altitude Reporting Facility
EDT Latitude Longitude Course Direction KTS MPH feet Rate Location/Type
10:24AM 39.8167 -104.6500 67° East 190 219 6,500  Level Denver TRACON
10:25AM 39.7667 -104.6000 142° Southeast 234 269 7,800 1,620 Climbing Denver TRACON
10:26AM 39.7000 -104.5500 150° Southeast 287 330 9,600 2,160 Climbing Denver TRACON
10:27AM 39.8667 -104.2236 90° East  Level FlightAware Approximate
10:27AM 39.6828 -104.5308 139° Southeast 295 339 10,400  Level Denver Center
10:28AM 39.8667 -104.0755 90° East  Level FlightAware Approximate
10:28AM 39.6681 -104.4269 100° East 301 346 13,100  Level Denver Center
10:29AM 39.8667 -103.9274 90° East  Level FlightAware Approximate
10:29AM 39.6967 -104.3069 73° East 337 388 14,300  Level Denver Center
10:30AM 39.8679 -103.7796 67° East  Level FlightAware Approximate
10:30AM 39.7378 -104.1825 67° East 382 440 15,600  Level Denver Center
10:31AM 39.7800 -104.0522 67° East 395 455 17,700 1,800 Climbing Denver Center
10:32AM 39.8264 -103.9075 67° East 405 466 19,400 1,500 Climbing Denver Center
10:33AM 39.8719 -103.7650 67° East 423 487 20,900 1,500 Climbing Denver Center
10:34AM 39.8989 -103.6014 78° East 429 494 22,500 1,560 Climbing Denver Center
10:35AM 39.9169 -103.4408 82° East 443 510 24,200 1,500 Climbing Denver Center
10:36AM 39.9353 -103.2794 82° East 444 511 25,600 1,140 Climbing Denver Center
10:37AM 39.9533 -103.1133 82° East 455 524 26,600 960 Climbing Denver Center
10:38AM 39.9725 -102.9444 82° East 467 537 27,600 1,080 Climbing Denver Center
10:39AM 39.9900 -102.7742 82° East 470 541 28,900 1,320 Climbing Denver Center
10:40AM 40.0086 -102.6025 82° East 464 534 30,400 1,380 Climbing Denver Center
10:41AM 40.0281 -102.4178 82° East 460 529 31,800 1,140 Climbing Denver Center
10:42AM 40.0450 -102.2606 82° East 458 527 32,800 1,020 Climbing Denver Center
10:43AM 40.0628 -102.0769 83° East 457 526 34,000 900 Climbing Denver Center
10:44AM 40.0781 -101.9183 83° East 460 529 34,700 480 Climbing Denver Center
10:45AM 40.0972 -101.7350 82° East 459 528 35,000 120 Climbing Denver Center
10:46AM 40.1133 -101.5772 82° East 459 528 35,000  Level Denver Center
10:47AM 40.1294 -101.3914 83° East 463 533 35,000  Level Denver Center
10:48AM 40.1453 -101.2344 82° East 458 527 35,000  Level Denver Center
10:50AM 40.1619 -101.0497 83° East 459 528 35,000  Level Denver Center
10:51AM 40.1814 -100.8392 83° East 459 528 35,000  Level Denver Center
10:52AM 40.1956 -100.6792 83° East 463 533 35,000  Level Denver Center
10:53AM 40.2233 -100.4972 79° East 462 532 35,000  Level Denver Center
10:54AM 40.2550 -100.3431 75° East 461 531 35,000  Level Denver Center
10:55AM 40.2911 -100.1608 75° East 464 534 35,000  Level Denver Center
10:56AM 40.3225 -100.0061 75° East 463 533 35,000  Level Denver Center
10:57AM 40.3558 -99.8392 75° East 468 539 35,000  Level Denver Center
10:58AM 40.3883 -99.6764 75° East 464 534 35,000  Level Denver Center
10:59AM 40.4197 -99.5111 76° East 468 539 35,000  Level Denver Center
11:00AM 40.4586 -99.3156 75° East 464 534 35,000  Level Denver Center
11:01AM 40.4906 -99.1528 75° East 463 533 35,000  Level Denver Center
11:02AM 40.5206 -98.9881 76° East 465 535 35,000  Level Minneapolis Center
11:03AM 40.5525 -98.8231 76° East 467 537 35,000  Level Minneapolis Center
11:04AM 40.5836 -98.6581 76° East 468 539 35,000  Level Minneapolis Center
11:05AM 40.6081 -98.5258 76° East 468 539 35,000  Level Minneapolis Center
11:06AM 40.6442 -98.3253 77° East 471 542 35,000  Level Minneapolis Center
11:07AM 40.6742 -98.1586 77° East 471 542 35,000  Level Minneapolis Center
11:08AM 40.7117 -97.9586 76° East 471 542 35,000  Level Minneapolis Center
11:09AM 40.7408 -97.7911 77° East 471 542 35,000  Level Minneapolis Center
11:10AM 40.7706 -97.6242 77° East 470 541 35,000  Level Minneapolis Center
11:11AM 40.8003 -97.4558 77° East 471 542 35,000  Level Minneapolis Center
11:12AM 40.8289 -97.2817 78° East 472 543 35,000  Level Minneapolis Center
11:13AM 40.8533 -97.1483 76° East 470 541 35,000  Level Minneapolis Center
11:14AM 40.8886 -96.9450 77° East 472 543 35,000  Level Minneapolis Center
11:15AM 40.9233 -96.7422 77° East 472 543 35,000  Level Minneapolis Center
11:16AM 40.9528 -96.5739 77° East 473 544 35,000  Level Minneapolis Center
11:17AM 40.9836 -96.4067 76° East 471 542 35,000  Level Minneapolis Center
11:18AM 41.0136 -96.2383 77° East 473 544 35,000  Level Minneapolis Center
11:19AM 41.0364 -96.1064 77° East 470 541 35,000  Level Minneapolis Center
11:20AM 41.0711 -95.9056 77° East 471 542 35,000  Level Minneapolis Center
11:22AM 41.1050 -95.7042 77° East 472 543 35,000  Level Minneapolis Center
11:23AM 41.1339 -95.5353 77° East 472 543 35,000  Level Minneapolis Center
11:24AM 41.1633 -95.3667 77° East 472 543 35,000  Level Minneapolis Center
11:25AM 41.1911 -95.1978 78° East 472 543 35,000  Level Minneapolis Center
11:26AM 41.2192 -95.0289 77° East 471 542 35,000  Level Minneapolis Center
11:27AM 41.2522 -94.8261 78° East 470 541 35,000  Level Minneapolis Center
11:28AM 41.2789 -94.6564 78° East 469 540 35,000  Level Minneapolis Center
11:29AM 41.3064 -94.4867 78° East 471 542 35,000  Level Minneapolis Center
11:30AM 41.3333 -94.3164 78° East 472 543 35,000  Level Minneapolis Center
11:31AM 41.3614 -94.1378 78° East 469 540 35,000  Level Minneapolis Center
11:32AM 41.3872 -93.9694 78° East 468 539 35,000  Level Minneapolis Center
11:33AM 41.4122 -93.8011 79° East 467 537 35,000  Level Minneapolis Center
11:34AM 41.4378 -93.6331 78° East 466 536 35,000  Level Minneapolis Center
11:35AM 41.4556 -93.4631 82° East 466 536 35,000  Level Minneapolis Center
11:36AM 41.4744 -93.2583 83° East 466 536 35,000  Level Minneapolis Center
11:37AM 41.4878 -93.1239 82° East 463 533 35,000  Level Minneapolis Center
11:38AM 41.5061 -92.9250 83° East 456 525 35,000  Level Minneapolis Center
11:39AM 41.5219 -92.7575 83° East 456 525 35,000  Level Minneapolis Center
11:40AM 41.5364 -92.5914 83° East 455 524 35,000  Level Minneapolis Center
11:41AM 41.5536 -92.3928 83° East 454 522 35,000  Level Minneapolis Center
11:42AM 41.5650 -92.2644 83° East 447 514 35,000  Level Chicago Center
11:43AM 41.5786 -92.1022 84° East 445 512 35,000  Level Chicago Center
11:44AM 41.5919 -91.9392 84° East 446 513 35,000  Level Chicago Center
11:45AM 41.6058 -91.7786 83° East 444 511 35,000  Level Chicago Center
11:46AM 41.6217 -91.5817 84° East 447 514 35,000  Level Chicago Center
11:47AM 41.6339 -91.4181 84° East 449 517 35,000  Level Chicago Center
11:48AM 41.6472 -91.2556 84° East 447 514 35,000  Level Chicago Center
11:49AM 41.6594 -91.0925 84° East 448 516 35,000  Level Chicago Center
11:50AM 41.6714 -90.9308 84° East 445 512 35,000  Level Chicago Center
11:51AM 41.6858 -90.7344 84° East 446 513 35,000  Level Chicago Center
11:52AM 41.6961 -90.5853 85° East 448 516 35,000  Level Chicago Center
11:53AM 41.7086 -90.4183 84° East 449 517 35,000  Level Chicago Center
11:54AM 41.7219 -90.2183 85° East 448 516 35,000  Level Chicago Center
11:55AM 41.7328 -90.0536 85° East 444 511 35,000  Level Chicago Center
11:56AM 41.7442 -89.8894 85° East 442 509 35,000  Level Chicago Center
11:57AM 41.7544 -89.7264 85° East 439 505 35,000  Level Chicago Center
11:58AM 41.7669 -89.5458 85° East 445 512 35,000  Level Chicago Center
11:59AM 41.7756 -89.3858 86° East 439 505 35,000  Level Chicago Center
12:01PM 41.7850 -89.2228 86° East 440 506 35,000  Level Chicago Center
12:02PM 41.7947 -89.0653 85° East 429 494 35,000  Level Chicago Center
12:03PM 41.8036 -88.9033 86° East 434 499 35,000  Level Chicago Center
12:04PM 41.8144 -88.7114 86° East 433 498 35,000  Level Chicago Center
12:05PM 41.8233 -88.5517 86° East 431 496 35,000  Level Chicago Center
12:06PM 41.8306 -88.3919 86° East 430 495 35,000  Level Chicago Center
12:07PM 41.8392 -88.2308 86° East 431 496 35,000  Level Chicago Center
12:08PM 41.8472 -88.0714 86° East 428 493 35,000  Level Chicago Center
12:09PM 41.8547 -87.9131 86° East 424 488 35,000  Level Chicago Center
12:10PM 41.8622 -87.7550 86° East 425 489 35,000  Level Chicago Center
12:11PM 41.8703 -87.5669 87° East 421 484 35,000  Level Chicago Center
12:12PM 41.8769 -87.4122 87° East 419 482 35,000  Level Chicago Center
12:13PM 41.8836 -87.2553 87° East 422 486 35,000  Level Chicago Center
12:14PM 41.8897 -87.1008 87° East 417 480 35,000  Level Chicago Center
12:15PM 41.8956 -86.9458 87° East 418 481 35,000  Level Chicago Center
12:16PM 41.9028 -86.7911 86° East 419 482 35,000  Level Chicago Center
12:17PM 41.9089 -86.6108 87° East 421 484 35,000  Level Chicago Center
12:18PM 41.9147 -86.4542 87° East 422 486 35,000  Level Chicago Center
12:19PM 41.9197 -86.2978 87° East 422 486 35,000  Level Chicago Center
12:20PM 41.9250 -86.1417 87° East 419 482 35,000  Level Chicago Center
12:21PM 41.9297 -85.9850 88° East 420 483 35,000  Level Chicago Center
12:22PM 41.9353 -85.7947 88° East 423 487 35,000  Level Chicago Center
12:23PM 41.9400 -85.6356 88° East 424 488 35,000  Level Chicago Center
12:24PM 41.9447 -85.4778 88° East 421 484 35,000  Level Chicago Center
12:25PM 41.9489 -85.3231 88° East 413 475 35,000  Level Chicago Center
12:26PM 41.9533 -85.2269 86° East 410 472 35,000  Level Cleveland Center
12:27PM 41.9533 -85.0733 90° East 410 472 35,000  Level Cleveland Center
12:28PM 41.9508 -84.9197 91° East 410 472 35,000  Level Cleveland Center
12:29PM 41.9522 -84.7689 89° East 405 466 35,000  Level Cleveland Center
12:30PM 41.9514 -84.6181 90° East 405 466 35,000  Level Cleveland Center
12:31PM 41.9508 -84.4586 90° East 405 466 35,000  Level Cleveland Center
12:32PM 41.9475 -84.3078 92° East 405 466 35,000  Level Cleveland Center
12:33PM 41.9414 -84.1706 93° East 405 466 35,000  Level Cleveland Center
12:34PM 41.9397 -84.0169 91° East 405 466 35,000  Level Cleveland Center
12:35PM 41.9381 -83.8633 91° East 405 466 35,000  Level Cleveland Center
12:36PM 41.9361 -83.7125 91° East 405 466 35,000  Level Cleveland Center
12:37PM 41.9322 -83.5419 92° East 405 466 35,000  Level Cleveland Center
12:38PM 41.9339 -83.3911 89° East 412 474 35,000  Level Cleveland Center
12:39PM 41.9314 -83.2347 91° East 407 468 35,000  Level Cleveland Center
12:40PM 41.9322 -83.0981 89° East 407 468 35,000  Level Cleveland Center
12:41PM 41.9294 -82.9417 91° East 407 468 35,000 540 Level Cleveland Center
12:42PM 41.9283 -82.7908 91° East 407 468 36,100 960 Climbing Cleveland Center
12:43PM 41.9250 -82.6372 92° East 407 468 37,000 420 Climbing Cleveland Center
12:44PM 41.9233 -82.4919 91° East 401 461 37,000  Level Cleveland Center
12:45PM 41.9217 -82.3356 91° East 406 467 37,000  Level Cleveland Center
12:46PM 41.9217 -82.1850 90° East 406 467 37,000  Level Cleveland Center
12:47PM 41.9217 -82.0369 90° East 401 461 37,000  Level Cleveland Center
12:48PM 41.9172 -81.8806 92° East 410 472 37,000  Level Cleveland Center
12:49PM 41.9064 -81.7158 95° East 410 472 37,000  Level Cleveland Center
12:50PM 41.8931 -81.5678 97° East 404 465 37,000  Level Cleveland Center
12:51PM 41.8797 -81.4169 97° East 409 471 37,000  Level Cleveland Center
12:52PM 41.8661 -81.2661 97° East 409 471 37,000  Level Cleveland Center
12:53PM 41.8544 -81.1183 96° East 409 471 37,000  Level Cleveland Center
12:54PM 41.8383 -80.9678 98° East 409 471 37,000  Level Cleveland Center
12:55PM 41.8242 -80.8339 98° East 409 471 37,000  Level Cleveland Center
12:56PM 41.8097 -80.6778 97° East 415 478 37,000  Level Cleveland Center
12:57PM 41.7953 -80.5275 97° East 410 472 37,000  Level Cleveland Center
12:58PM 41.7806 -80.3772 97° East 410 472 37,000  Level Cleveland Center
12:59PM 41.7636 -80.2242 98° East 410 472 37,000  Level Cleveland Center
01:00PM 41.7503 -80.0683 96° East 410 472 37,000  Level Cleveland Center
01:01PM 41.7308 -79.9014 99° East 410 472 37,000  Level Cleveland Center
01:02PM 41.7153 -79.7514 98° East 405 466 37,000  Level Cleveland Center
01:03PM 41.6994 -79.6014 98° East 410 472 37,000  Level Cleveland Center
01:04PM 41.6833 -79.4489 98° East 410 472 37,000  Level Cleveland Center
01:05PM 41.6672 -79.2961 98° East 410 472 37,000  Level Cleveland Center
01:06PM 41.6486 -79.1436 99° East 410 472 37,000  Level Cleveland Center
01:07PM 41.6322 -78.9914 98° East 410 472 37,000  Level Cleveland Center
01:08PM 41.6153 -78.8389 98° East 410 472 37,000  Level Cleveland Center
01:09PM 41.5983 -78.6867 98° East 410 472 37,000  Level Cleveland Center
01:10PM 41.5811 -78.5344 99° East 410 472 37,000  Level Cleveland Center
01:11PM 41.5575 -78.3369 99° East 419 482 37,000 -2,580 Level New York Center
01:12PM 41.5400 -78.1853 99° East 414 476 31,000 -2,580 Descending New York Center
01:13PM 41.5206 -78.0278 99° East 419 482 32,000  Climbing New York Center
01:14PM 41.4992 -77.8647 100° East 447 514 31,000 -540 Descending New York Center
01:15PM 41.4753 -77.7017 101° East 454 522 31,000  Level New York Center
01:16PM 41.4514 -77.5386 101° East 454 522 31,000  Level New York Center
01:17PM 41.4272 -77.3756 101° East 454 522 31,000 -420 Level New York Center
01:18PM 41.4028 -77.2128 101° East 449 517 30,200 -960 Descending New York Center
01:19PM 41.3783 -77.0472 101° East 449 517 29,200 -1,020 Descending New York Center
01:20PM 41.3533 -76.8900 102° East 449 517 28,200 -1,020 Descending New York Center
01:21PM 41.3242 -76.7244 103° East 444 511 27,200 -960 Descending New York Center
01:22PM 41.2817 -76.5717 110° East 444 511 26,300 -1,320 Descending New York Center
01:23PM 41.2392 -76.4161 110° East 449 517 24,700 -2,160 Descending New York Center
01:24PM 41.1964 -76.2664 111° Southeast 449 517 21,900 -2,880 Descending New York Center
01:25PM 41.1592 -76.1200 109° East 430 495 19,200 -2,520 Descending New York Center
01:26PM 41.1239 -75.9822 109° East 405 466 17,100 -1,740 Descending New York Center
01:27PM 41.0861 -75.8444 110° East 399 459 15,800 -1,320 Descending New York Center
01:28PM 41.0500 -75.7125 110° East 388 447 14,500 -1,320 Descending New York Center
01:29PM 41.0192 -75.5975 110° East 378 435 13,200 -1,260 Descending New York Center
01:30PM 40.9808 -75.4628 111° Southeast 362 417 12,000 -1,140 Descending New York Center
01:31PM 40.9517 -75.3592 110° East 344 396 11,000 -1,080 Descending New York Center
01:32PM 40.9206 -75.2472 110° East 316 364 9,900 -1,320 Descending New York Center
01:33PM 40.8947 -75.1550 110° East 280 322 8,500 -1,440 Descending New York Center
01:34PM 40.8669 -75.0653 112° Southeast 269 310 7,100 -780 Descending New York Center
01:35PM 40.8364 -74.9894 118° Southeast 259 298 7,000 -60 Descending New York Center
01:36PM 40.7931 -74.9128 127° Southeast 259 298 7,000  Level New York Center
01:37PM 40.7631 -74.8150 112° Southeast 259 298 7,000  Level New York Center
01:38PM 40.7556 -74.7322 97° East 251 289 7,000  Level New York Center
01:39PM 40.7714 -74.6347 78° East 250 288 7,000 -480 Level New York Center
01:40PM 40.8167 -74.6167 17° North 238 274 6,200 -600 Descending New York TRACON
01:41PM 40.8833 -74.5833 21° North 237 273 6,000 -180 Descending New York TRACON
01:41PM 40.8958 -74.5842 357° North 229 264 6,000  Level New York Center
01:42PM 40.9528 -74.5625 16° North 229 264 6,000  Level New York Center
01:43PM 41.0222 -74.5389 14° North 229 264 6,000  Level New York Center
01:44PM 41.0856 -74.5150 16° North 229 264 6,000 -120 Level New York Center
01:45PM 41.0903 -74.4325 86° East 188 216 5,800 -540 Descending New York Center
01:46PM 41.0842 -74.3581 96° East 202 232 5,000 -480 Descending New York Center
01:47PM 41.0667 -74.3167 119° Southeast 200 230 5,000 -360 Level New York TRACON
01:48PM 41.0167 -74.3000 166° South 186 214 4,400 -540 Descending New York TRACON
01:49PM 40.9833 -74.2500 131° Southeast 185 213 4,000 -240 Descending New York TRACON
01:50PM 40.9500 -74.1833 123° Southeast 184 212 4,000 -360 Level New York TRACON
01:51PM 40.9167 -74.1333 131° Southeast 182 209 3,300 -540 Descending New York TRACON
01:52PM 40.8833 -74.0833 131° Southeast 185 213 3,000 -360 Descending New York TRACON
01:53PM 40.8333 -74.0667 166° South 185 213 2,600 -420 Descending New York TRACON